Time;durP1;ratioP1;P1;durP2;ratioP2;P2;SDS_P1;SDS_P2;PMS_P1;PMS_P2;Temp;Humidity;BMP_temperature;BMP_pressure;BME280_temperature;BME280_humidity;BME280_pressure;Samples;Min_cycle;Max_cycle;Signal;HPM_P1;HPM_P2
2021/09/17 00:04:02;;;;;;;1.03;0.67;;;19.70;72.90;;;;;;10410527;28;20189;-61
2021/09/17 00:09:24;;;;;;;0.80;0.60;;;19.70;73.90;;;;;;10387729;28;20218;-62
2021/09/17 00:14:46;;;;;;;1.77;0.60;;;19.70;73.50;;;;;;10369419;28;20237;-63
2021/09/17 00:20:12;;;;;;;1.00;0.70;;;19.70;73.00;;;;;;10369492;28;20218;-63
2021/09/17 00:25:34;;;;;;;0.80;0.60;;;19.70;73.50;;;;;;10368633;28;20201;-59
2021/09/17 00:30:56;;;;;;;1.70;0.60;;;19.70;73.30;;;;;;10399929;28;20221;-60
2021/09/17 00:36:20;;;;;;;1.47;0.90;;;19.70;74.10;;;;;;10408748;28;20197;-58
2021/09/17 00:41:42;;;;;;;1.30;0.70;;;19.70;73.40;;;;;;10394548;28;20240;-61
2021/09/17 00:47:05;;;;;;;0.70;0.57;;;19.70;73.10;;;;;;10406344;28;20209;-59
2021/09/17 00:52:28;;;;;;;0.67;0.60;;;19.70;73.50;;;;;;10429845;28;20217;-59
2021/09/17 00:57:51;;;;;;;0.50;0.50;;;19.70;73.20;;;;;;10423378;28;20197;-62
2021/09/17 01:03:13;;;;;;;0.67;0.67;;;19.70;73.90;;;;;;10384620;28;20218;-63
2021/09/17 01:08:36;;;;;;;0.97;0.87;;;19.70;73.20;;;;;;10367324;28;20198;-59
2021/09/17 01:13:59;;;;;;;0.87;0.70;;;19.70;73.10;;;;;;10368051;28;20559;-60
2021/09/17 01:19:21;;;;;;;1.17;0.80;;;19.70;73.60;;;;;;10367750;28;20225;-60
2021/09/17 01:24:44;;;;;;;1.33;1.00;;;19.70;73.30;;;;;;10381470;28;20238;-56
2021/09/17 01:30:08;;;;;;;1.27;0.60;;;19.70;74.00;;;;;;10398666;28;20221;-62
2021/09/17 01:35:30;;;;;;;0.70;0.60;;;19.70;73.40;;;;;;10406367;28;20581;-59
2021/09/17 01:40:54;;;;;;;1.07;0.60;;;19.70;72.70;;;;;;10407515;28;20222;-59
2021/09/17 01:46:16;;;;;;;0.70;0.70;;;19.70;73.50;;;;;;10408833;28;20205;-61
2021/09/17 01:51:39;;;;;;;0.60;0.60;;;19.70;73.20;;;;;;10380273;28;20706;-59
2021/09/17 01:57:02;;;;;;;0.63;0.60;;;19.70;74.00;;;;;;10410500;28;20569;-61
2021/09/17 02:02:24;;;;;;;1.63;0.70;;;19.70;73.70;;;;;;10413392;28;20562;-64
2021/09/17 02:07:47;;;;;;;0.90;0.80;;;19.70;72.30;;;;;;10413585;28;20190;-64
2021/09/17 02:13:11;;;;;;;0.63;0.60;;;19.70;73.20;;;;;;10414371;28;20577;-59
2021/09/17 02:18:33;;;;;;;1.03;0.63;;;19.70;73.40;;;;;;10396976;28;20581;-63
2021/09/17 02:23:55;;;;;;;1.10;0.70;;;19.70;72.80;;;;;;10407443;28;20542;-59
2021/09/17 02:29:19;;;;;;;1.17;0.80;;;19.60;73.50;;;;;;10404549;28;20267;-58
2021/09/17 02:34:41;;;;;;;1.30;0.90;;;19.70;73.30;;;;;;10411253;28;20438;-58
2021/09/17 02:40:04;;;;;;;1.67;0.70;;;19.90;71.80;;;;;;10413812;28;20311;-61
2021/09/17 02:45:28;;;;;;;0.73;0.73;;;19.80;72.70;;;;;;10449129;22;20274;-64
2021/09/17 02:50:50;;;;;;;2.20;0.90;;;19.70;72.80;;;;;;10490402;28;20216;-64
2021/09/17 02:56:12;;;;;;;0.97;0.80;;;19.70;72.80;;;;;;10475653;28;20208;-64
2021/09/17 03:01:35;;;;;;;1.67;0.83;;;19.70;73.20;;;;;;10487250;28;20222;-65
2021/09/17 03:06:58;;;;;;;1.75;0.90;;;19.70;73.10;;;;;;10493041;28;20959;-65
2021/09/17 03:12:20;;;;;;;0.87;0.60;;;19.90;71.60;;;;;;10493781;28;20314;-65
2021/09/17 03:17:44;;;;;;;1.63;1.07;;;19.80;72.50;;;;;;10453681;28;20200;-62
2021/09/17 03:23:06;;;;;;;1.27;0.77;;;19.70;72.70;;;;;;10453222;28;20287;-64
2021/09/17 03:28:28;;;;;;;0.97;0.70;;;19.70;72.60;;;;;;10475233;28;20192;-66
2021/09/17 03:33:51;;;;;;;0.50;0.50;;;19.70;73.20;;;;;;10492324;28;20229;-68
2021/09/17 03:39:15;;;;;;;0.70;0.70;;;19.70;73.00;;;;;;10494556;28;20243;-64
2021/09/17 03:44:37;;;;;;;1.57;0.97;;;19.70;72.60;;;;;;10491002;28;20200;-65
2021/09/17 03:50:00;;;;;;;0.90;0.60;;;19.60;73.10;;;;;;10492727;28;20212;-66
2021/09/17 03:55:22;;;;;;;0.70;0.60;;;19.60;72.80;;;;;;10491863;28;20223;-62
2021/09/17 04:00:45;;;;;;;1.77;0.70;;;19.70;72.90;;;;;;10492054;28;20687;-63
2021/09/17 04:06:08;;;;;;;1.40;0.90;;;19.60;73.40;;;;;;10492936;28;20188;-64
2021/09/17 04:11:30;;;;;;;0.77;0.77;;;19.60;72.80;;;;;;10490975;28;20220;-67
2021/09/17 04:16:53;;;;;;;1.10;0.80;;;19.70;72.80;;;;;;10492534;28;20568;-63
2021/09/17 04:22:16;;;;;;;0.90;0.80;;;19.60;73.30;;;;;;10486652;28;20212;-67
2021/09/17 04:27:40;;;;;;;0.77;0.77;;;19.60;72.80;;;;;;10486115;28;20210;-63
2021/09/17 04:33:03;;;;;;;1.17;0.80;;;19.70;73.00;;;;;;10445116;28;20383;-64
2021/09/17 04:38:26;;;;;;;1.27;0.80;;;19.60;73.60;;;;;;10445769;28;20220;-62
2021/09/17 04:43:48;;;;;;;1.60;0.90;;;19.60;72.60;;;;;;10448661;28;20250;-64
2021/09/17 04:49:11;;;;;;;0.80;0.80;;;19.70;72.90;;;;;;10477897;28;20215;-63
2021/09/17 04:54:34;;;;;;;1.13;1.03;;;19.60;73.30;;;;;;10491183;28;20219;-67
2021/09/17 04:59:56;;;;;;;1.70;0.90;;;19.60;72.40;;;;;;10491344;28;20212;-60
2021/09/17 05:05:18;;;;;;;1.00;0.90;;;19.60;73.00;;;;;;10489790;28;20571;-62
2021/09/17 05:10:42;;;;;;;2.47;0.90;;;19.60;73.40;;;;;;10489639;28;20208;-64
2021/09/17 05:16:05;;;;;;;1.17;0.97;;;19.60;72.40;;;;;;10484527;28;20212;-66
2021/09/17 05:21:27;;;;;;;1.43;0.80;;;19.60;73.20;;;;;;10489346;28;20208;-66
2021/09/17 05:26:51;;;;;;;1.30;0.80;;;19.50;73.40;;;;;;10498828;28;20207;-63
2021/09/17 05:32:13;;;;;;;1.37;0.97;;;19.60;73.00;;;;;;10496767;28;20227;-66
2021/09/17 05:37:35;;;;;;;1.67;0.90;;;19.60;73.00;;;;;;10497356;28;20197;-66
2021/09/17 05:42:59;;;;;;;1.03;0.80;;;19.60;73.50;;;;;;10494171;28;20208;-61
2021/09/17 05:48:23;;;;;;;1.70;0.90;;;19.60;73.10;;;;;;10495482;28;20192;-62
2021/09/17 05:53:45;;;;;;;2.07;1.00;;;19.60;72.80;;;;;;10497544;28;20208;-62
2021/09/17 05:59:08;;;;;;;1.03;0.87;;;19.60;73.60;;;;;;10493557;28;20231;-64
2021/09/17 06:04:31;;;;;;;2.27;0.90;;;19.60;73.20;;;;;;10492481;28;20195;-62
2021/09/17 06:09:53;;;;;;;2.73;0.90;;;19.60;72.50;;;;;;10481008;28;20217;-64
2021/09/17 06:15:17;;;;;;;0.90;0.60;;;19.60;73.10;;;;;;10474766;28;20587;-65
2021/09/17 06:20:39;;;;;;;1.83;0.70;;;19.60;73.30;;;;;;10473301;28;20227;-62
2021/09/17 06:26:01;;;;;;;2.23;0.70;;;19.60;72.60;;;;;;10485289;28;20193;-63
2021/09/17 06:31:25;;;;;;;1.43;0.80;;;19.60;73.50;;;;;;10485156;28;20220;-63
2021/09/17 06:36:48;;;;;;;1.00;0.70;;;19.60;73.70;;;;;;10492259;28;20197;-65
2021/09/17 06:42:10;;;;;;;1.17;0.70;;;19.60;72.50;;;;;;10493783;28;20303;-64
2021/09/17 06:47:42;;;;;;;2.50;0.70;;;19.60;73.20;;;;;;10494392;28;20667;-64
2021/09/17 06:53:05;;;;;;;1.30;0.80;;;19.60;73.50;;;;;;10489837;28;20248;-64
2021/09/17 06:58:31;;;;;;;0.93;0.60;;;19.60;73.20;;;;;;10486349;28;20196;-63
2021/09/17 07:03:55;;;;;;;2.00;0.70;;;19.60;72.80;;;;;;10482118;28;20200;-63
2021/09/17 07:09:17;;;;;;;1.90;0.83;;;19.60;73.50;;;;;;10493288;28;20216;-65
2021/09/17 07:14:39;;;;;;;2.70;0.60;;;19.50;73.50;;;;;;10494119;28;20231;-68
2021/09/17 07:20:03;;;;;;;2.57;0.70;;;19.60;72.50;;;;;;10501978;28;20220;-63
2021/09/17 07:25:26;;;;;;;2.13;0.70;;;19.60;73.50;;;;;;10501302;28;20200;-67
2021/09/17 07:30:48;;;;;;;1.97;0.70;;;19.50;73.80;;;;;;10487766;28;20224;-65
2021/09/17 07:36:12;;;;;;;1.30;0.63;;;19.60;72.80;;;;;;10492381;28;20594;-67
2021/09/17 07:41:34;;;;;;;0.80;0.50;;;19.60;72.80;;;;;;10491040;28;20675;-63
2021/09/17 07:46:56;;;;;;;0.70;0.50;;;19.50;73.40;;;;;;10491728;28;20548;-63
2021/09/17 07:52:19;;;;;;;0.93;0.50;;;19.50;73.50;;;;;;10492381;28;20216;-65
2021/09/17 07:57:42;;;;;;;1.10;0.60;;;19.60;72.30;;;;;;10491016;28;20196;-67
2021/09/17 08:03:04;;;;;;;0.97;0.60;;;19.60;73.10;;;;;;10490664;28;20223;-66
2021/09/17 08:08:28;;;;;;;1.30;0.43;;;19.60;73.60;;;;;;10488473;28;20204;-67
2021/09/17 08:13:50;;;;;;;0.67;0.47;;;19.60;72.90;;;;;;10491121;28;20216;-67
2021/09/17 08:19:13;;;;;;;0.50;0.43;;;19.60;72.80;;;;;;10491594;28;20213;-63
2021/09/17 08:24:37;;;;;;;0.73;0.60;;;19.60;73.40;;;;;;10492357;28;20185;-63
2021/09/17 08:29:59;;;;;;;0.83;0.53;;;19.50;73.60;;;;;;10491228;28;20212;-63
2021/09/17 08:35:21;;;;;;;1.27;0.50;;;19.60;72.50;;;;;;10491874;28;20212;-63
2021/09/17 08:40:44;;;;;;;0.40;0.40;;;19.60;73.20;;;;;;10491884;28;20216;-65
2021/09/17 08:46:07;;;;;;;0.73;0.53;;;19.50;73.50;;;;;;10491808;28;20196;-63
2021/09/17 08:51:25;;;;;;;0.77;0.60;;;19.60;73.10;;;;;;10445384;28;20709;-52
2021/09/17 08:56:48;;;;;;;1.07;0.43;;;19.60;73.10;;;;;;10447549;28;20224;-52
2021/09/17 09:02:21;;;;;;;0.70;0.40;;;19.60;73.70;;;;;;10424863;28;20193;-50
2021/09/17 09:07:44;;;;;;;1.10;0.40;;;19.60;73.20;;;;;;10449830;28;20565;-51
2021/09/17 09:13:08;;;;;;;0.20;0.20;;;19.70;72.00;;;;;;10449981;28;20215;-47
2021/09/17 09:18:31;;;;;;;0.60;0.40;;;19.70;73.10;;;;;;10449292;28;20217;-47
2021/09/17 09:24:09;;;;;;;0.60;0.50;;;19.70;73.60;;;;;;10469719;28;20283;-49
2021/09/17 09:29:33;;;;;;;0.27;0.23;;;19.70;72.30;;;;;;10440888;28;20213;-51
2021/09/17 09:34:57;;;;;;;0.70;0.40;;;19.70;72.80;;;;;;10450281;28;20712;-49
2021/09/17 09:40:19;;;;;;;1.00;0.30;;;19.70;73.30;;;;;;10470747;28;20221;-52
2021/09/17 09:45:42;;;;;;;0.47;0.30;;;19.70;73.20;;;;;;10450337;28;20662;-48
2021/09/17 09:51:11;;;;;;;0.40;0.40;;;19.70;71.90;;;;;;10448337;28;20229;-50
2021/09/17 09:56:34;;;;;;;0.60;0.20;;;19.80;73.00;;;;;;10448512;28;20267;-61
2021/09/17 10:02:00;;;;;;;0.43;0.40;;;19.70;73.40;;;;;;10448446;28;20201;-51
2021/09/17 10:07:22;;;;;;;1.00;0.43;;;19.80;72.50;;;;;;10434535;28;20412;-49
2021/09/17 10:12:47;;;;;;;0.50;0.20;;;19.80;73.00;;;;;;10447644;28;20717;-52
2021/09/17 10:18:11;;;;;;;0.40;0.20;;;19.80;73.60;;;;;;10464889;28;20220;-52
2021/09/17 10:23:34;;;;;;;0.43;0.27;;;19.80;72.80;;;;;;10455684;28;20201;-49
2021/09/17 10:29:05;;;;;;;1.13;0.30;;;19.80;72.90;;;;;;10456842;28;20219;-54
2021/09/17 10:34:41;;;;;;;0.60;0.27;;;19.80;73.50;;;;;;10456083;28;20790;-51
2021/09/17 10:40:08;;;;;;;0.40;0.10;;;19.80;72.70;;;;;;10455725;28;20222;-49
2021/09/17 10:45:38;;;;;;;0.10;0.10;;;19.70;73.50;;;;;;10456118;28;20189;-64
2021/09/17 10:51:04;;;;;;;0.23;0.10;;;19.70;73.60;;;;;;10425200;28;20764;-57
2021/09/17 10:56:26;;;;;;;0.50;0.20;;;19.70;73.20;;;;;;10451831;28;20205;-59
2021/09/17 11:01:51;;;;;;;0.57;0.17;;;19.70;71.80;;;;;;10453092;28;20197;-55
2021/09/17 11:07:38;;;;;;;0.40;0.20;;;19.70;72.90;;;;;;10455686;28;20718;-59
2021/09/17 11:13:07;;;;;;;1.50;0.30;;;19.70;73.20;;;;;;10437973;28;20240;-59
2021/09/17 11:18:29;;;;;;;0.37;0.23;;;19.70;72.40;;;;;;10414900;28;20243;-61
2021/09/17 11:23:52;;;;;;;1.50;0.17;;;19.70;73.10;;;;;;10423621;28;20189;-61
2021/09/17 11:29:16;;;;;;;0.30;0.20;;;19.70;73.40;;;;;;10454193;28;20220;-57
2021/09/17 11:34:39;;;;;;;0.40;0.27;;;19.60;72.70;;;;;;10453090;28;20608;-63
2021/09/17 11:40:06;;;;;;;1.27;0.27;;;19.70;72.50;;;;;;10450592;28;20594;-63
2021/09/17 11:45:28;;;;;;;0.43;0.20;;;19.70;73.20;;;;;;10453324;28;20551;-61
2021/09/17 11:50:52;;;;;;;0.43;0.13;;;19.60;73.20;;;;;;10452478;28;20583;-61
2021/09/17 11:56:15;;;;;;;0.50;0.30;;;19.60;72.90;;;;;;10465027;28;20216;-58
2021/09/17 12:01:37;;;;;;;0.77;0.20;;;19.60;73.60;;;;;;10492520;28;20689;-58
2021/09/17 12:07:00;;;;;;;0.83;0.30;;;19.60;73.30;;;;;;10449207;28;20209;-59
2021/09/17 12:12:33;;;;;;;0.23;0.23;;;19.60;72.00;;;;;;10451178;28;20701;-62
2021/09/17 12:17:58;;;;;;;1.23;0.20;;;19.70;73.00;;;;;;10446697;28;20209;-62
2021/09/17 12:23:21;;;;;;;0.85;0.30;;;19.60;73.30;;;;;;10445482;28;20415;-62
2021/09/17 12:28:48;;;;;;;0.73;0.30;;;20.20;70.10;;;;;;10449708;28;20224;-64
2021/09/17 12:34:12;;;;;;;0.30;0.30;;;19.90;71.80;;;;;;10450094;28;20686;-62
2021/09/17 12:39:34;;;;;;;1.30;0.30;;;19.80;72.70;;;;;;10450095;28;20597;-63
2021/09/17 12:45:01;;;;;;;0.37;0.10;;;19.70;72.00;;;;;;10449651;28;20197;-63
2021/09/17 12:50:30;;;;;;;1.17;0.20;;;19.70;72.90;;;;;;10444303;28;20232;-63
2021/09/17 12:56:02;;;;;;;1.27;0.40;;;19.60;73.30;;;;;;10410727;28;20436;-64
2021/09/17 13:01:26;;;;;;;0.77;0.30;;;19.80;71.60;;;;;;10446359;28;20200;-64
2021/09/17 13:06:48;;;;;;;0.37;0.20;;;19.70;72.20;;;;;;10450128;28;20208;-64
2021/09/17 13:12:10;;;;;;;0.53;0.10;;;19.60;72.70;;;;;;10450559;28;20674;-64
2021/09/17 13:17:33;;;;;;;0.77;0.30;;;19.60;72.50;;;;;;10448758;28;20228;-61
2021/09/17 13:22:59;;;;;;;0.93;0.47;;;19.70;72.40;;;;;;10449729;28;20569;-62
2021/09/17 13:28:21;;;;;;;0.53;0.30;;;19.60;73.00;;;;;;10448598;28;20217;-63
2021/09/17 13:33:44;;;;;;;0.13;0.10;;;19.60;73.00;;;;;;10449159;28;20606;-64
2021/09/17 13:39:06;;;;;;;0.10;0.10;;;19.60;72.40;;;;;;10443583;28;20583;-61
2021/09/17 13:44:28;;;;;;;0.13;0.10;;;19.60;73.10;;;;;;10454921;28;20601;-61
2021/09/17 13:49:52;;;;;;;0.20;0.20;;;19.60;73.20;;;;;;10454316;28;20735;-61
2021/09/17 13:55:17;;;;;;;0.77;0.30;;;19.60;72.00;;;;;;10452190;28;20221;-62
2021/09/17 14:00:39;;;;;;;1.13;0.30;;;19.60;72.80;;;;;;10441051;28;20720;-63
2021/09/17 14:06:04;;;;;;;0.57;0.23;;;19.60;73.00;;;;;;10447577;28;20670;-61
2021/09/17 14:11:26;;;;;;;2.60;0.27;;;19.70;71.90;;;;;;10455035;28;20284;-61
2021/09/17 14:16:49;;;;;;;0.63;0.20;;;19.60;72.50;;;;;;10456911;28;20231;-62
2021/09/17 14:22:13;;;;;;;0.40;0.20;;;19.60;72.90;;;;;;10456367;28;20276;-62
2021/09/17 14:27:35;;;;;;;0.30;0.17;;;19.70;72.10;;;;;;10454065;28;20720;-62
2021/09/17 14:32:57;;;;;;;1.17;0.30;;;19.60;72.50;;;;;;10450346;28;20202;-62
2021/09/17 14:38:21;;;;;;;1.17;0.20;;;19.60;72.60;;;;;;10455737;28;20213;-61
2021/09/17 14:43:43;;;;;;;0.57;0.20;;;19.70;72.20;;;;;;10454993;28;20193;-62
2021/09/17 14:49:06;;;;;;;0.87;0.30;;;19.70;72.60;;;;;;10468547;23;20291;-70
2021/09/17 14:54:29;;;;;;;0.93;0.20;;;19.60;72.30;;;;;;10441347;28;20220;-71
2021/09/17 14:59:51;;;;;;;0.70;0.40;;;19.70;72.30;;;;;;10447061;28;20217;-68
2021/09/17 15:05:13;;;;;;;0.87;0.40;;;19.60;72.70;;;;;;10453856;28;20197;-68
2021/09/17 15:10:37;;;;;;;1.37;0.20;;;19.60;71.90;;;;;;10451218;28;20598;-68
2021/09/17 15:15:59;;;;;;;0.63;0.30;;;19.70;72.30;;;;;;10454442;28;20217;-68
2021/09/17 15:21:21;;;;;;;1.30;0.30;;;19.60;72.60;;;;;;10439079;28;20221;-68
2021/09/17 15:26:44;;;;;;;0.47;0.23;;;19.60;72.10;;;;;;10455996;28;20215;-66
2021/09/17 15:32:07;;;;;;;0.93;0.27;;;19.70;72.30;;;;;;10412488;28;20257;-68
2021/09/17 15:37:29;;;;;;;1.00;0.40;;;19.60;72.60;;;;;;10428453;28;20224;-68
2021/09/17 15:42:53;;;;;;;0.30;0.27;;;19.60;72.20;;;;;;10452517;28;20204;-66
2021/09/17 15:48:18;;;;;;;0.10;0.10;;;19.60;72.50;;;;;;10449629;28;20221;-68
2021/09/17 15:53:40;;;;;;;0.60;0.20;;;19.60;72.80;;;;;;10449764;28;20197;-68
2021/09/17 15:59:04;;;;;;;0.57;0.47;;;19.60;72.30;;;;;;10452240;28;20708;-67
2021/09/17 16:04:26;;;;;;;1.53;0.40;;;19.70;72.70;;;;;;10452177;28;20571;-69
2021/09/17 16:09:48;;;;;;;0.63;0.30;;;19.60;72.90;;;;;;10456199;28;20224;-68
2021/09/17 16:15:12;;;;;;;0.10;0.10;;;19.60;72.80;;;;;;10453509;28;20235;-68
2021/09/17 16:20:35;;;;;;;0.40;0.20;;;19.70;72.70;;;;;;10453572;28;20227;-68
2021/09/17 16:25:58;;;;;;;1.23;0.20;;;19.70;72.90;;;;;;10452798;28;20689;-68
2021/09/17 16:31:22;;;;;;;1.67;0.30;;;19.70;72.10;;;;;;10451895;28;20213;-65
2021/09/17 16:36:44;;;;;;;0.40;0.20;;;19.70;72.80;;;;;;10420421;28;20308;-68
2021/09/17 16:42:06;;;;;;;0.70;0.30;;;19.60;73.00;;;;;;10410256;28;20232;-68
2021/09/17 16:47:29;;;;;;;0.40;0.30;;;19.70;72.10;;;;;;10418928;28;20197;-67
2021/09/17 16:52:51;;;;;;;0.40;0.23;;;19.70;72.80;;;;;;10436732;28;20212;-66
2021/09/17 16:58:14;;;;;;;0.60;0.20;;;19.70;73.00;;;;;;10447014;28;20447;-65
2021/09/17 17:03:37;;;;;;;0.20;0.20;;;19.70;72.10;;;;;;10440912;28;20193;-66
2021/09/17 17:08:59;;;;;;;0.83;0.20;;;19.70;72.60;;;;;;10449214;28;20209;-66
2021/09/17 17:14:22;;;;;;;0.30;0.20;;;19.70;73.10;;;;;;10441670;28;20205;-67
2021/09/17 17:19:46;;;;;;;1.83;0.50;;;19.70;72.00;;;;;;10446278;28;20587;-66
2021/09/17 17:25:09;;;;;;;1.10;0.40;;;19.70;72.90;;;;;;10451099;28;20193;-66
2021/09/17 17:30:32;;;;;;;0.47;0.20;;;19.60;73.20;;;;;;10451802;28;20216;-65
2021/09/17 17:35:56;;;;;;;0.57;0.30;;;19.60;71.90;;;;;;10445250;28;20225;-66
2021/09/17 17:41:19;;;;;;;0.83;0.30;;;19.60;72.70;;;;;;10453445;28;20217;-66
2021/09/17 17:46:41;;;;;;;0.53;0.30;;;19.60;73.10;;;;;;10448630;28;20674;-66
2021/09/17 17:52:06;;;;;;;0.53;0.20;;;19.60;71.90;;;;;;10452239;28;20589;-66
2021/09/17 17:57:28;;;;;;;0.47;0.27;;;19.60;72.80;;;;;;10457580;28;20213;-66
2021/09/17 18:02:50;;;;;;;0.73;0.30;;;19.60;73.20;;;;;;10449226;28;20240;-66
2021/09/17 18:08:15;;;;;;;0.23;0.20;;;19.60;72.20;;;;;;10450103;28;20221;-66
2021/09/17 18:13:37;;;;;;;0.93;0.40;;;19.60;72.90;;;;;;10450421;28;20193;-66
2021/09/17 18:18:59;;;;;;;0.30;0.30;;;19.60;73.20;;;;;;10450164;28;20330;-66
2021/09/17 18:24:23;;;;;;;0.80;0.40;;;19.60;72.40;;;;;;10450289;28;20189;-66
2021/09/17 18:29:45;;;;;;;0.53;0.30;;;19.60;73.10;;;;;;10442366;28;20226;-68
2021/09/17 18:35:08;;;;;;;0.87;0.47;;;19.60;73.40;;;;;;10445237;28;20234;-67
2021/09/17 18:40:32;;;;;;;0.30;0.30;;;19.50;73.50;;;;;;10445692;28;20223;-66
2021/09/17 18:45:56;;;;;;;1.10;0.40;;;19.50;73.60;;;;;;10451107;28;20220;-66
2021/09/17 18:51:18;;;;;;;0.40;0.40;;;19.50;73.60;;;;;;10451190;28;20233;-66
2021/09/17 18:56:42;;;;;;;0.50;0.37;;;19.50;73.60;;;;;;10450064;28;20213;-66
2021/09/17 19:02:04;;;;;;;0.40;0.30;;;19.50;73.70;;;;;;10435139;28;20213;-65
2021/09/17 19:07:26;;;;;;;0.40;0.30;;;19.50;73.70;;;;;;10448826;28;20208;-67
2021/09/17 19:12:50;;;;;;;0.77;0.37;;;19.40;73.70;;;;;;10449709;28;20203;-66
2021/09/17 19:18:13;;;;;;;0.53;0.30;;;19.40;73.70;;;;;;10447296;28;20216;-66
2021/09/17 19:23:35;;;;;;;0.80;0.40;;;19.40;73.70;;;;;;10455235;28;20201;-66
2021/09/17 19:28:58;;;;;;;0.50;0.30;;;19.40;73.80;;;;;;10447231;28;20217;-65
2021/09/17 19:34:20;;;;;;;0.70;0.40;;;19.40;73.80;;;;;;10440811;28;20203;-65
2021/09/17 19:39:42;;;;;;;0.70;0.30;;;19.40;73.80;;;;;;10450966;28;20235;-66
2021/09/17 19:45:07;;;;;;;0.70;0.47;;;19.40;73.80;;;;;;10447427;28;20617;-66
2021/09/17 19:50:30;;;;;;;1.40;0.50;;;19.40;73.80;;;;;;10452618;28;20232;-66
2021/09/17 19:55:52;;;;;;;0.70;0.40;;;19.40;73.80;;;;;;10451164;28;20586;-66
2021/09/17 20:01:15;;;;;;;0.30;0.30;;;19.40;73.80;;;;;;10450462;28;20236;-66
2021/09/17 20:06:37;;;;;;;1.00;0.57;;;19.40;73.80;;;;;;10449710;28;20189;-66
2021/09/17 20:11:59;;;;;;;0.60;0.33;;;19.40;73.80;;;;;;10452135;28;20235;-66
2021/09/17 20:17:24;;;;;;;1.93;0.60;;;19.40;73.80;;;;;;10452256;28;20227;-66
2021/09/17 20:22:47;;;;;;;0.90;0.57;;;19.40;73.80;;;;;;10449008;28;20205;-66
2021/09/17 20:28:09;;;;;;;0.40;0.30;;;19.40;73.80;;;;;;10448470;28;20216;-66
2021/09/17 20:33:34;;;;;;;0.50;0.40;;;19.40;73.80;;;;;;10447856;28;20189;-65
2021/09/17 20:38:57;;;;;;;1.17;0.30;;;19.30;73.80;;;;;;10449513;28;20597;-65
2021/09/17 20:44:19;;;;;;;0.83;0.43;;;19.30;73.80;;;;;;10435549;28;20206;-66
2021/09/17 20:49:43;;;;;;;1.10;0.40;;;19.30;73.80;;;;;;10450771;28;20221;-66
2021/09/17 20:55:08;;;;;;;0.93;0.40;;;19.30;73.80;;;;;;10441921;28;20221;-66
2021/09/17 21:00:30;;;;;;;0.40;0.30;;;19.30;73.70;;;;;;10492812;23;20226;-62
2021/09/17 21:05:53;;;;;;;0.30;0.30;;;19.30;73.70;;;;;;10463940;28;20664;-59
2021/09/17 21:11:16;;;;;;;1.13;0.47;;;19.30;73.70;;;;;;10520140;28;20723;-64
2021/09/17 21:16:38;;;;;;;0.83;0.50;;;19.30;73.70;;;;;;10532742;28;20219;-63
2021/09/17 21:22:01;;;;;;;1.10;0.45;;;19.30;73.70;;;;;;10515062;28;20440;-63
2021/09/17 21:27:23;;;;;;;1.90;0.57;;;19.50;73.50;;;;;;10501569;28;20187;-64
2021/09/17 21:32:46;;;;;;;0.77;0.40;;;19.40;74.00;;;;;;10524708;28;20569;-64
2021/09/17 21:38:09;;;;;;;0.70;0.60;;;19.40;73.50;;;;;;10515744;28;20219;-64
2021/09/17 21:43:31;;;;;;;1.03;0.60;;;19.40;73.90;;;;;;10501318;28;20207;-63
2021/09/17 21:48:53;;;;;;;0.40;0.40;;;19.30;74.00;;;;;;10496920;28;20223;-63
2021/09/17 21:54:17;;;;;;;0.37;0.37;;;19.30;74.00;;;;;;10518985;28;20204;-62
2021/09/17 21:59:39;;;;;;;0.73;0.47;;;19.30;73.90;;;;;;10492142;28;20223;-62
2021/09/17 22:05:03;;;;;;;1.47;0.43;;;19.30;73.80;;;;;;10498027;28;20200;-62
2021/09/17 22:10:26;;;;;;;1.43;0.50;;;19.30;73.80;;;;;;10538267;28;20257;-63
2021/09/17 22:15:48;;;;;;;0.30;0.30;;;19.30;73.80;;;;;;10508337;28;20279;-64
2021/09/17 22:21:11;;;;;;;0.50;0.43;;;19.30;73.70;;;;;;10527231;28;20250;-63
2021/09/17 22:26:35;;;;;;;0.70;0.40;;;19.30;73.70;;;;;;10533692;28;20204;-63
2021/09/17 22:31:57;;;;;;;0.60;0.43;;;19.20;73.60;;;;;;10525139;28;20211;-61
2021/09/17 22:37:19;;;;;;;1.07;0.50;;;19.20;73.50;;;;;;10528221;28;20216;-63
2021/09/17 22:42:42;;;;;;;0.50;0.50;;;19.20;73.50;;;;;;10499988;28;20194;-63
2021/09/17 22:48:05;;;;;;;0.53;0.47;;;19.20;73.50;;;;;;10540727;27;20207;-63
2021/09/17 22:53:27;;;;;;;1.90;0.70;;;19.20;73.40;;;;;;10528419;28;20201;-63
2021/09/17 22:58:51;;;;;;;1.30;0.57;;;19.20;73.40;;;;;;10497892;28;20227;-62
2021/09/17 23:04:13;;;;;;;1.67;0.80;;;19.20;73.40;;;;;;10509922;28;20196;-62
2021/09/17 23:09:35;;;;;;;1.40;0.70;;;19.20;73.40;;;;;;10497767;28;20223;-63
2021/09/17 23:14:58;;;;;;;1.20;0.70;;;19.20;73.40;;;;;;10534442;28;20273;-68
2021/09/17 23:20:20;;;;;;;1.53;0.93;;;19.20;73.40;;;;;;10533992;28;20678;-64
2021/09/17 23:25:42;;;;;;;1.77;0.83;;;19.20;73.40;;;;;;10508052;28;20207;-62
2021/09/17 23:31:06;;;;;;;0.53;0.33;;;19.20;73.40;;;;;;10520275;28;20222;-62
2021/09/17 23:36:28;;;;;;;1.30;0.70;;;19.20;73.40;;;;;;10520172;28;20596;-63
2021/09/17 23:41:50;;;;;;;0.93;0.73;;;19.20;73.40;;;;;;10533465;28;20211;-62
2021/09/17 23:47:13;;;;;;;1.73;0.80;;;19.20;73.40;;;;;;10536552;28;20184;-63
2021/09/17 23:52:36;;;;;;;0.83;0.53;;;19.20;73.40;;;;;;10534332;28;20196;-62
2021/09/17 23:57:58;;;;;;;0.90;0.60;;;19.20;73.40;;;;;;10498515;28;20715;-60
